• Join FlightAware (Why Join?)
  • Login
  • US Flag 
05:26PM EDT


 

Airport Tracker/Info


-or-


 

Live Flight TrackerFlight Track Log ✈ N4920G ✈ 03-Jun-2013 ✈ KSBN - KSBN

Flight Track Log - Related Links

Times and Time Zones

All times are in EDT time to prevent confusion due to time zone crossing. See the N4920G flight status page for this flight to view local times or setup timezone preferences in your user account.

Time Position Orientation Groundspeed Altitude Reporting Facility
EDT Latitude Longitude Course Direction KTS MPH feet Rate Location/Type
01:46PM 41.7564 -86.3200 350° North 69 79 2,800  Level Chicago Center
01:47PM 41.7792 -86.3083 21° North 75 86 2,900  Climbing Chicago Center
01:48PM 41.8064 -86.2950 20° North 87 100 2,900 -60 Level Chicago Center
01:49PM 41.8325 -86.2822 20° North 95 109 2,800  Descending Chicago Center
01:50PM 41.7082 -86.3173 348° North  Level Estimated
01:50PM 41.8650 -86.2686 17° North 99 114 3,000  Level Chicago Center
01:51PM 41.7082 -86.3173 350° North  Level Estimated
01:51PM 41.8933 -86.2586 15° North 102 117 2,900  Level Chicago Center
01:52PM 41.9192 -86.2461 20° North 101 116 2,900  Level Chicago Center
01:53PM 41.9461 -86.2372 14° North 100 115 2,900  Level Chicago Center
01:54PM 41.9722 -86.2253 19° North 100 115 2,900  Level Chicago Center
01:55PM 41.9997 -86.2136 17° North 102 117 2,900  Level Chicago Center
01:56PM 42.0353 -86.1961 20° North 110 127 2,900  Level Chicago Center
01:57PM 42.0644 -86.1828 19° North 111 128 2,900  Level Chicago Center
01:58PM 42.0917 -86.1714 17° North 105 121 2,900 -60 Level Chicago Center
01:59PM 42.1189 -86.1775 351° North 108 124 2,800  Descending Chicago Center
02:00PM 42.1289 -86.2094 293° West 96 110 3,000  Climbing Chicago Center
02:01PM 42.1306 -86.2450 274° West 94 108 2,900 -240 Descending Chicago Center
02:02PM 42.1286 -86.2781 265° West 90 104 2,600 -480 Descending Chicago Center
02:03PM 42.1256 -86.3200 264° West 92 106 2,000 -360 Descending Chicago Center
02:04PM 42.1233 -86.3536 265° West 92 106 1,900 60 Descending Chicago Center
02:06PM 42.0871 -86.3504 176° South  Level Estimated
02:10PM 42.1325 -86.4222 176° South 71 82 2,500  Level Chicago Center
02:11PM 42.1275 -86.3931 103° East 79 91 3,000 180 Climbing Chicago Center
02:12PM 42.1181 -86.3589 110° East 91 105 2,900 -60 Descending Chicago Center
02:13PM 41.8699 -86.3314 176° South  Level Estimated
02:13PM 42.1114 -86.3203 103° East 102 117 2,900  Level Chicago Center
02:14PM 41.8389 -86.3287 176° South  Level Estimated
02:14PM 42.1053 -86.2867 104° East 97 112 2,900  Level Chicago Center
02:15PM 41.8078 -86.3260 176° South  Level Estimated
02:15PM 42.1036 -86.2531 94° East 92 106 2,900  Level Chicago Center
02:16PM 42.1094 -86.2097 80° East 96 110 2,900  Level Chicago Center
02:17PM 42.1128 -86.1706 83° East 102 117 2,900  Level Chicago Center
02:18PM 42.1058 -86.1336 104° East 114 131 2,900  Level Chicago Center
02:19PM 42.0769 -86.1261 169° South 108 124 2,900 -240 Level Chicago Center
02:20PM 42.0508 -86.1289 185° South 97 112 2,500 -600 Descending Chicago Center
02:21PM 42.0228 -86.1289 180° South 99 114 1,700 -540 Descending Chicago Center
02:22PM 41.9928 -86.1269 177° South 97 112 1,500 120 Descending Chicago Center
02:23PM 41.9736 -86.1272 181° South 80 92 2,000 360 Climbing Chicago Center
02:24PM 41.9633 -86.1458 233° Southwest 93 107 2,300 300 Climbing Chicago Center
02:25PM 41.9756 -86.1328 38° Northeast 85 98 2,700 300 Climbing Chicago Center
02:26PM 41.9686 -86.1017 107° East 85 98 3,000 120 Climbing Chicago Center
02:27PM 41.9625 -86.0642 102° East 97 112 3,000  Level Chicago Center
02:28PM 41.9528 -86.0294 111° Southeast 99 114 3,000 -60 Level Chicago Center
02:29PM 41.9450 -85.9842 103° East 102 117 2,900 -60 Descending Chicago Center
02:30PM 41.9367 -85.9461 106° East 106 122 2,900  Level Chicago Center
02:31PM 41.9278 -85.9097 108° East 103 119 2,900  Level Chicago Center
02:32PM 41.9206 -85.8706 104° East 105 121 2,900 60 Level Chicago Center
02:33PM 41.9183 -85.8325 94° East 104 120 3,100  Climbing Chicago Center
02:34PM 41.9169 -85.7903 93° East 107 123 2,900 -120 Descending Chicago Center
02:36PM 41.9175 -85.7425 89° East 108 124 2,900  Level Chicago Center
02:37PM 41.9225 -85.7050 80° East 106 122 3,000  Climbing Chicago Center
02:38PM 41.9272 -85.6669 81° East 103 119 3,000  Level Chicago Center
02:39PM 41.9289 -85.6289 87° East 103 119 3,000 -60 Level Chicago Center
02:40PM 41.9297 -85.5906 88° East 102 117 2,900 -60 Descending Chicago Center
02:41PM 41.9322 -85.5517 85° East 103 119 2,900  Level Chicago Center
02:42PM 41.9531 -85.5197 49° Northeast 108 124 3,000  Climbing Chicago Center
02:43PM 41.9781 -85.4975 33° Northeast 108 124 3,000 -60 Level Chicago Center
02:44PM 42.0050 -85.4992 357° North 105 121 2,900 -180 Descending Chicago Center
02:45PM 42.0269 -85.5111 338° Northwest 95 109 2,700 -60 Descending Chicago Center
02:46PM 42.0517 -85.5114 360° North 90 104 2,800 60 Climbing Chicago Center
02:47PM 42.0764 -85.5222 342° North 91 105 2,900  Climbing Chicago Center
02:48PM 42.1053 -85.5253 356° North 88 101 2,800 -60 Descending Chicago Center
02:49PM 42.1286 -85.5278 355° North 86 99 2,800 -240 Level Chicago Center
02:50PM 42.1519 -85.5347 348° North 84 97 2,400 -540 Descending Chicago Center
02:51PM 42.1742 -85.5389 352° North 83 96 1,800 -480 Descending Chicago Center
02:52PM 42.1956 -85.5439 350° North 80 92 1,500 -300 Descending Chicago Center
02:53PM 42.2211 -85.5494 351° North 82 94 1,200 60 Descending Chicago Center
02:55PM 42.1878 -85.5866 220° Southwest  Level FlightAware Approximate
02:56PM 42.2578 -85.5189 220° Southwest 111 128 1,900  Level Chicago Center
02:57PM 42.2672 -85.4975 59° Northeast 68 78 2,400 480 Climbing Chicago Center
02:58PM 42.2811 -85.4717 54° Northeast 75 86 3,000 240 Climbing Chicago Center
02:59PM 42.3008 -85.4431 47° Northeast 93 107 2,900 -60 Descending Chicago Center
03:00PM 42.3183 -85.4147 50° Northeast 99 114 2,900  Level Chicago Center
03:01PM 42.3347 -85.3867 52° Northeast 96 110 3,000  Climbing Chicago Center
03:02PM 42.3578 -85.3494 50° Northeast 105 121 2,900 -180 Descending Chicago Center
03:03PM 42.3758 -85.3192 51° Northeast 105 121 2,700  Descending Chicago Center
03:04PM 42.3942 -85.2933 46° Northeast 98 113 3,000  Climbing Chicago Center
03:05PM 42.4114 -85.2586 56° Northeast 106 122 2,800 -60 Descending Chicago Center
03:06PM 42.4281 -85.2244 57° Northeast 108 124 2,900  Climbing Chicago Center
03:07PM 42.4450 -85.1900 56° Northeast 111 128 2,800 -60 Descending Chicago Center
03:08PM 42.4547 -85.1464 73° East 110 127 2,800  Level Chicago Center
03:09PM 42.4331 -85.1253 144° Southeast 99 114 2,900  Climbing Chicago Center
03:10PM 42.4033 -85.1328 191° South 105 121 2,900 -60 Level Chicago Center
03:11PM 42.3825 -85.1572 221° Southwest 107 123 2,800 -480 Descending Chicago Center
03:12PM 42.3586 -85.1858 222° Southwest 102 117 2,000 -660 Descending Chicago Center
03:13PM 42.3406 -85.2139 229° Southwest 100 115 1,500 -300 Descending Chicago Center
03:14PM 42.3222 -85.2400 226° Southwest 100 115 1,400 120 Descending Chicago Center
03:16PM 42.3059 -85.2713 235° Southwest  Level FlightAware Approximate
03:17PM 42.2783 -85.2853 235° Southwest 80 92 2,000  Level Chicago Center
03:18PM 42.2586 -85.2961 202° Southwest 78 90 2,400 420 Climbing Chicago Center
03:19PM 42.2342 -85.2911 171° South 84 97 2,900 480 Climbing Chicago Center
03:20PM 42.2242 -85.3139 239° Southwest 73 84 3,400 480 Climbing Chicago Center
03:21PM 42.2125 -85.3383 237° Southwest 75 86 3,900 180 Climbing Chicago Center
03:22PM 42.1953 -85.3692 233° Southwest 93 107 3,800  Descending Chicago Center
03:23PM 42.1985 -85.4765 235° Southwest  Level FlightAware Approximate
03:23PM 42.1753 -85.4072 235° Southwest 102 117 3,900  Level Chicago Center
03:24PM 42.1578 -85.4392 234° Southwest 105 121 3,800 -60 Descending Chicago Center
03:25PM 42.1403 -85.4744 236° Southwest 111 128 3,800  Level Chicago Center
03:26PM 42.1256 -85.5075 239° Southwest 107 123 3,900  Climbing Chicago Center
03:27PM 42.1092 -85.5408 236° Southwest 106 122 3,900  Level Chicago Center
03:29PM 42.0931 -85.5739 237° Southwest 106 122 3,900  Level Chicago Center
03:30PM 42.0733 -85.6158 238° Southwest 109 125 3,900 -60 Level Chicago Center
03:31PM 42.0550 -85.6528 236° Southwest 116 133 3,800  Descending Chicago Center
03:32PM 42.0383 -85.6836 234° Southwest 108 124 3,900  Climbing Chicago Center
03:33PM 42.0197 -85.7172 233° Southwest 110 127 3,800  Descending Chicago Center
03:34PM 41.9994 -85.7503 230° Southwest 114 131 3,900  Climbing Chicago Center
03:35PM 41.9772 -85.7906 233° Southwest 113 130 3,800  Descending Chicago Center
03:36PM 41.9536 -85.8158 219° Southwest 111 128 3,900  Climbing Chicago Center
03:37PM 41.9256 -85.8356 208° Southwest 113 130 3,800  Descending Chicago Center
03:38PM 41.9003 -85.8569 212° Southwest 109 125 3,900  Climbing Chicago Center
03:39PM 41.8750 -85.8800 214° Southwest 109 125 3,800  Descending Chicago Center
03:40PM 41.8453 -85.9117 218° Southwest 113 130 3,900  Climbing Chicago Center
03:41PM 41.8192 -85.9367 216° Southwest 115 132 3,800 -60 Descending Chicago Center
03:42PM 41.7944 -85.9597 215° Southwest 112 129 3,800  Level Chicago Center
03:43PM 41.7697 -85.9861 219° Southwest 111 128 3,900  Climbing Chicago Center
03:44PM 41.7447 -86.0108 216° Southwest 113 130 3,800 -60 Descending Chicago Center
03:45PM 41.7217 -86.0339 217° Southwest 109 125 3,800  Level Chicago Center
03:46PM 41.7058 -86.0742 242° Southwest 109 125 3,800 -240 Level Chicago Center
03:47PM 41.7067 -86.1106 272° West 103 119 3,400 -480 Descending Chicago Center
03:48PM 41.7064 -86.1481 269° West 101 116 2,800 -480 Descending Chicago Center
03:49PM 41.7056 -86.1817 268° West 97 112 2,500 -540 Descending Chicago Center
03:50PM 41.7042 -86.2161 267° West 94 108 1,800 -540 Descending Chicago Center
03:51PM 41.7042 -86.2525 270° West 88 101 1,400 -300 Descending Chicago Center
03:52PM 41.7036 -86.2808 269° West 85 98 1,300 -120 Descending Chicago Center
03:54PM 41.7000 -86.3167 252° West  Level FlightAware Approximate
04:01PM 41.7082 -86.3173 252° West  Level Estimated
04:02PM 41.7082 -86.3173 252° West  Level Estimated